Time;durP1;ratioP1;P1;durP2;ratioP2;P2;SDS_P1;SDS_P2;PMS_P1;PMS_P2;Temp;Humidity;BMP_temperature;BMP_pressure;BME280_temperature;BME280_humidity;BME280_pressure;Samples;Min_cycle;Max_cycle;Signal;HPM_P1;HPM_P2
2024/01/08 00:00:12;;;;;;;2.00;1.90;;;-7.80;99.90;;;;;;6176887;23;20177;-83
2024/01/08 00:02:40;;;;;;;3.25;3.05;;;-7.70;99.90;;;;;;6202115;23;20177;-82
2024/01/08 00:05:07;;;;;;;1.38;1.35;;;-7.80;99.90;;;;;;6174099;23;20499;-85
2024/01/08 00:07:35;;;;;;;1.27;1.27;;;-7.80;99.90;;;;;;6201838;23;20192;-87
2024/01/08 00:10:04;;;;;;;6.38;4.15;;;-7.70;99.90;;;;;;6154635;23;20185;-86
2024/01/08 00:12:33;;;;;;;2.67;2.53;;;-7.90;99.90;;;;;;6177233;23;20214;-87
2024/01/08 00:15:03;;;;;;;8.15;3.13;;;-8.00;99.90;;;;;;6202133;23;20200;-87
2024/01/08 00:17:30;;;;;;;2.90;2.67;;;-8.00;99.90;;;;;;6199649;23;20231;-82
2024/01/08 00:19:57;;;;;;;6.57;4.30;;;-8.00;99.90;;;;;;6200109;23;20177;-87
2024/01/08 00:22:25;;;;;;;5.20;4.72;;;-8.00;99.90;;;;;;6180600;23;20481;-84
2024/01/08 00:24:57;;;;;;;3.00;2.80;;;-8.00;99.90;;;;;;6161419;23;20168;-86
2024/01/08 00:27:24;;;;;;;10.80;5.68;;;-8.10;99.90;;;;;;6183017;23;20197;-85
2024/01/08 00:29:53;;;;;;;2.88;2.70;;;-8.10;99.90;;;;;;6176355;23;20197;-82
2024/01/08 00:32:21;;;;;;;6.20;5.65;;;-8.30;99.90;;;;;;6201074;23;20177;-82
2024/01/08 00:34:48;;;;;;;11.13;4.07;;;-8.20;99.90;;;;;;6206263;23;20201;-85
2024/01/08 00:39:46;;;;;;;2.38;2.28;;;-8.20;99.90;;;;;;6214323;22;20181;-83
2024/01/08 00:42:21;;;;;;;4.65;3.75;;;-8.20;99.90;;;;;;6214490;22;20175;-87
2024/01/08 00:44:51;;;;;;;4.78;4.47;;;-8.40;99.90;;;;;;6215131;22;20195;-86
2024/01/08 00:47:18;;;;;;;2.05;1.95;;;-8.30;99.90;;;;;;6207522;23;20197;-87
2024/01/08 00:49:46;;;;;;;1.55;1.52;;;-8.30;99.90;;;;;;6203216;23;20173;-84
2024/01/08 00:52:13;;;;;;;2.00;1.90;;;-8.40;99.90;;;;;;6180056;22;20188;-86
2024/01/08 00:54:42;;;;;;;3.20;3.08;;;-8.30;99.90;;;;;;6208230;23;20446;-88
2024/01/08 00:57:14;;;;;;;4.13;2.90;;;-8.00;99.90;;;;;;6203875;23;20184;-86
2024/01/08 00:59:41;;;;;;;6.68;2.95;;;-8.30;99.90;;;;;;6156823;23;20227;-84
2024/01/08 01:02:10;;;;;;;4.13;2.88;;;-8.20;99.90;;;;;;6205103;23;20504;-87
2024/01/08 01:04:37;;;;;;;3.40;3.15;;;-8.30;99.90;;;;;;6188329;23;20269;-86
2024/01/08 01:07:05;;;;;;;2.92;2.83;;;-8.30;99.90;;;;;;6214519;23;20265;-86
2024/01/08 01:12:19;;;;;;;3.25;3.03;;;-8.20;99.90;;;;;;6206806;22;20192;-83
2024/01/08 01:14:48;;;;;;;1.67;1.33;;;-8.30;99.90;;;;;;6208035;23;20180;-83
2024/01/08 01:19:51;;;;;;;1.20;1.20;;;-8.20;99.90;;;;;;6212588;22;20494;-86
2024/01/08 01:22:19;;;;;;;2.50;2.35;;;-8.10;99.90;;;;;;6204515;23;20170;-82
2024/01/08 01:24:46;;;;;;;1.50;1.50;;;-8.10;99.90;;;;;;6197096;22;20201;-82
2024/01/08 01:27:14;;;;;;;1.52;1.45;;;-8.00;99.90;;;;;;6202842;22;20349;-85
2024/01/08 01:29:42;;;;;;;3.15;3.00;;;-8.00;99.90;;;;;;6204032;22;20341;-85
2024/01/08 01:32:09;;;;;;;6.72;3.33;;;-8.20;99.90;;;;;;6205316;23;20496;-82
2024/01/08 01:34:37;;;;;;;6.95;5.70;;;-8.20;99.90;;;;;;6203256;23;20237;-84
2024/01/08 01:37:05;;;;;;;3.30;3.10;;;-8.20;99.90;;;;;;6199951;22;20212;-86
2024/01/08 01:39:33;;;;;;;4.55;3.92;;;-8.10;99.90;;;;;;6204967;23;20165;-85
2024/01/08 01:42:00;;;;;;;8.52;6.38;;;-8.20;99.90;;;;;;6202366;23;20173;-84
2024/01/08 01:44:27;;;;;;;4.95;4.40;;;-8.30;99.90;;;;;;6204391;23;20169;-87
2024/01/08 01:46:59;;;;;;;2.30;2.20;;;-8.30;99.90;;;;;;6206271;23;20173;-84
2024/01/08 01:49:27;;;;;;;2.95;2.75;;;-8.20;99.90;;;;;;6208906;23;20165;-84
2024/01/08 01:51:58;;;;;;;1.67;1.58;;;-8.30;99.90;;;;;;6200169;23;20187;-83
2024/01/08 01:54:28;;;;;;;7.50;4.50;;;-8.30;99.90;;;;;;6205074;23;20177;-82
2024/01/08 01:56:59;;;;;;;1.92;1.85;;;-8.30;99.90;;;;;;6212426;23;20197;-84
2024/01/08 01:59:32;;;;;;;4.95;4.57;;;-8.40;99.90;;;;;;6211986;23;20160;-85
2024/01/08 02:02:04;;;;;;;3.53;3.40;;;-8.30;99.90;;;;;;6205640;23;20199;-88
2024/01/08 02:04:32;;;;;;;7.55;4.05;;;-8.40;99.90;;;;;;6210048;23;20162;-87
2024/01/08 02:07:00;;;;;;;3.45;3.30;;;-8.40;99.90;;;;;;6204178;23;20231;-86
2024/01/08 02:09:29;;;;;;;3.53;3.40;;;-8.40;99.90;;;;;;6195085;23;20233;-85
2024/01/08 02:14:38;;;;;;;8.32;7.57;;;-8.40;99.90;;;;;;6200227;23;20381;-83
2024/01/08 02:17:06;;;;;;;2.85;2.72;;;-8.30;99.90;;;;;;6197972;23;20469;-83
2024/01/08 02:19:34;;;;;;;6.35;3.58;;;-8.40;99.90;;;;;;6199375;23;20180;-90
2024/01/08 02:22:01;;;;;;;4.55;4.05;;;-8.30;99.90;;;;;;6196144;23;20177;-86
2024/01/08 02:24:29;;;;;;;1.13;1.13;;;-8.30;99.90;;;;;;6197417;23;20185;-84
2024/01/08 02:26:59;;;;;;;2.47;2.30;;;-8.20;99.90;;;;;;6197814;23;20176;-87
2024/01/08 02:29:28;;;;;;;8.77;5.88;;;-8.10;99.90;;;;;;6197694;23;20380;-86
2024/01/08 02:31:55;;;;;;;2.85;2.55;;;-8.30;99.90;;;;;;6198722;23;20180;-85
2024/01/08 02:34:22;;;;;;;3.50;3.20;;;-8.30;99.90;;;;;;6200522;23;20181;-85
2024/01/08 02:36:49;;;;;;;3.17;2.88;;;-8.30;99.90;;;;;;6200843;23;20220;-84
2024/01/08 02:39:16;;;;;;;4.72;4.43;;;-8.30;99.90;;;;;;6199869;23;20173;-82
2024/01/08 02:41:44;;;;;;;2.90;2.70;;;-8.30;99.90;;;;;;6199472;23;20184;-82
2024/01/08 02:44:11;;;;;;;2.83;2.65;;;-8.30;99.90;;;;;;6196407;23;20212;-85
2024/01/08 02:46:38;;;;;;;5.22;3.95;;;-8.30;99.90;;;;;;6198843;23;20200;-88
2024/01/08 02:49:05;;;;;;;2.72;2.63;;;-8.30;99.90;;;;;;6194598;23;20221;-82
2024/01/08 02:51:32;;;;;;;5.25;4.93;;;-8.20;99.90;;;;;;6197285;23;20189;-84
2024/01/08 02:53:59;;;;;;;1.67;1.58;;;-8.20;99.90;;;;;;6199710;23;20392;-85
2024/01/08 02:56:29;;;;;;;4.35;2.33;;;-8.20;99.90;;;;;;6195780;23;20177;-90
2024/01/08 02:58:58;;;;;;;5.32;3.05;;;-8.20;99.90;;;;;;6198285;23;20169;-82
2024/01/08 03:01:25;;;;;;;6.43;5.53;;;-8.10;99.90;;;;;;6211840;23;20209;-82
2024/01/08 03:03:52;;;;;;;3.35;3.05;;;-8.10;99.90;;;;;;6211527;22;20204;-82
2024/01/08 03:06:19;;;;;;;7.13;5.60;;;-8.10;99.90;;;;;;6211766;23;20168;-79
2024/01/08 03:08:46;;;;;;;4.93;2.00;;;-8.20;99.90;;;;;;6212103;23;20201;-81
2024/01/08 03:11:13;;;;;;;3.20;3.00;;;-8.20;99.90;;;;;;6203670;23;20196;-79
2024/01/08 03:13:40;;;;;;;3.88;3.60;;;-8.10;99.90;;;;;;6196753;23;20176;-83
2024/01/08 03:16:07;;;;;;;6.82;3.00;;;-8.20;99.90;;;;;;6197095;23;20169;-86
2024/01/08 03:18:35;;;;;;;4.53;4.22;;;-8.20;99.90;;;;;;6196808;23;20177;-83
2024/01/08 03:21:06;;;;;;;4.22;1.85;;;-8.30;99.90;;;;;;6194033;23;20180;-83
2024/01/08 03:23:33;;;;;;;7.80;7.15;;;-8.20;99.90;;;;;;6198193;23;20184;-84
2024/01/08 03:26:00;;;;;;;2.28;2.17;;;-8.40;99.90;;;;;;6197093;23;20176;-84
2024/01/08 03:28:27;;;;;;;2.83;2.72;;;-8.30;99.90;;;;;;6195931;23;20571;-82
2024/01/08 03:30:55;;;;;;;3.78;3.42;;;-8.30;99.90;;;;;;6197396;23;20224;-87
2024/01/08 03:33:22;;;;;;;5.45;4.13;;;-8.40;99.90;;;;;;6195950;23;20189;-82
2024/01/08 03:35:49;;;;;;;5.07;3.92;;;-8.50;99.90;;;;;;6199105;23;20177;-85
2024/01/08 03:38:16;;;;;;;4.55;4.18;;;-8.50;99.90;;;;;;6198503;23;20256;-82
2024/01/08 03:40:44;;;;;;;4.50;4.20;;;-8.50;99.90;;;;;;6199787;23;20173;-89
2024/01/08 03:43:12;;;;;;;5.63;3.20;;;-8.40;99.90;;;;;;6199824;23;20204;-82
2024/01/08 03:45:39;;;;;;;1.80;1.73;;;-8.50;99.90;;;;;;6200514;23;20192;-84
2024/01/08 03:48:06;;;;;;;4.72;2.60;;;-8.80;99.90;;;;;;6197364;23;20243;-81
2024/01/08 03:50:35;;;;;;;1.95;1.85;;;-8.70;99.90;;;;;;6199661;23;20177;-81
2024/01/08 03:53:02;;;;;;;1.20;1.20;;;-8.70;99.90;;;;;;6198824;23;20177;-84
2024/01/08 03:55:32;;;;;;;1.33;1.33;;;-8.70;99.90;;;;;;6199018;23;20519;-84
2024/01/08 03:57:59;;;;;;;1.30;1.02;;;-8.70;99.90;;;;;;6196699;23;20640;-83
2024/01/08 04:00:26;;;;;;;2.40;2.30;;;-8.80;99.90;;;;;;6195133;23;20177;-86
2024/01/08 04:02:57;;;;;;;2.10;2.00;;;-9.00;99.90;;;;;;6204804;23;20209;-83
2024/01/08 04:05:24;;;;;;;1.38;1.38;;;-8.80;99.90;;;;;;6208005;23;20188;-80
2024/01/08 04:07:51;;;;;;;4.00;2.45;;;-8.90;99.90;;;;;;6194361;23;20287;-89
2024/01/08 04:10:19;;;;;;;2.92;2.72;;;-8.80;99.90;;;;;;6195793;23;20181;-85
2024/01/08 04:12:46;;;;;;;1.52;1.45;;;-9.00;99.90;;;;;;6197557;23;20176;-83
2024/01/08 04:15:14;;;;;;;1.77;1.67;;;-8.90;99.90;;;;;;6203440;23;20288;-87
2024/01/08 04:17:41;;;;;;;4.30;4.10;;;-8.90;99.90;;;;;;6200851;23;20405;-85
2024/01/08 04:20:09;;;;;;;4.45;3.90;;;-8.20;99.90;;;;;;6195019;23;20220;-87
2024/01/08 04:22:37;;;;;;;4.43;3.90;;;-8.60;99.90;;;;;;6172452;23;20177;-83
2024/01/08 04:25:04;;;;;;;1.45;1.45;;;-9.00;99.90;;;;;;6174030;23;20176;-81
2024/01/08 04:27:31;;;;;;;4.47;4.10;;;-9.10;99.90;;;;;;6197851;23;20212;-83
2024/01/08 04:29:58;;;;;;;1.70;1.60;;;-9.00;99.90;;;;;;6202028;23;20206;-84
2024/01/08 04:32:28;;;;;;;2.42;2.33;;;-9.10;99.90;;;;;;6198871;23;20212;-81
2024/01/08 04:35:09;;;;;;;2.25;2.15;;;-9.10;99.90;;;;;;6202597;23;20175;-81
2024/01/08 04:37:38;;;;;;;1.80;1.70;;;-9.20;99.90;;;;;;6178718;23;20183;-84
2024/01/08 04:40:05;;;;;;;3.35;3.13;;;-9.30;99.90;;;;;;6208761;23;20184;-84
2024/01/08 04:42:33;;;;;;;1.88;1.77;;;-9.20;99.90;;;;;;6195390;23;20204;-85
2024/01/08 04:45:00;;;;;;;2.05;1.85;;;-9.20;99.90;;;;;;6209854;23;20172;-89
2024/01/08 04:47:28;;;;;;;1.67;1.58;;;-9.20;99.90;;;;;;6235764;23;20329;-88
2024/01/08 04:49:57;;;;;;;1.15;1.15;;;-9.30;99.90;;;;;;6205458;23;20196;-86
2024/01/08 04:52:25;;;;;;;2.92;2.70;;;-9.30;99.90;;;;;;6231894;23;20195;-87
2024/01/08 04:54:52;;;;;;;3.22;3.00;;;-9.40;99.90;;;;;;6209928;23;20168;-86
2024/01/08 05:00:00;;;;;;;1.20;1.20;;;-9.50;99.90;;;;;;6193442;22;20207;-87
2024/01/08 05:02:27;;;;;;;0.90;0.90;;;-9.50;99.90;;;;;;6202089;23;20394;-84
2024/01/08 05:04:55;;;;;;;0.80;0.80;;;-9.50;99.90;;;;;;6187671;23;20169;-82
2024/01/08 05:07:22;;;;;;;1.70;1.63;;;-9.30;99.90;;;;;;6214806;23;20168;-84
2024/01/08 05:09:49;;;;;;;4.20;4.03;;;-9.40;99.90;;;;;;6205131;23;20224;-86
2024/01/08 05:12:16;;;;;;;3.47;2.38;;;-9.40;99.90;;;;;;6175717;23;20215;-85
2024/01/08 05:14:44;;;;;;;0.60;0.60;;;-9.50;99.90;;;;;;6174148;23;20181;-89
2024/01/08 05:17:11;;;;;;;0.93;0.93;;;-9.60;99.90;;;;;;6180227;23;20371;-86
2024/01/08 05:19:39;;;;;;;1.38;1.33;;;-9.50;99.90;;;;;;6199632;23;20383;-89
2024/01/08 05:22:08;;;;;;;1.92;1.83;;;-9.60;99.90;;;;;;6176647;23;20181;-88
2024/01/08 05:24:34;;;;;;;2.17;0.82;;;-9.50;99.90;;;;;;6182086;23;20239;-88
2024/01/08 05:27:02;;;;;;;2.13;2.05;;;-9.40;99.90;;;;;;6176318;23;20204;-84
2024/01/08 05:29:29;;;;;;;2.28;2.08;;;-9.50;99.90;;;;;;6181307;23;20189;-90
2024/01/08 05:31:56;;;;;;;8.10;5.18;;;-9.60;99.90;;;;;;6212473;23;20216;-82
2024/01/08 05:34:23;;;;;;;2.70;2.53;;;-9.50;99.90;;;;;;6164745;23;20165;-80
2024/01/08 05:36:51;;;;;;;1.80;1.70;;;-9.60;99.90;;;;;;6211466;23;20184;-85
2024/01/08 05:39:25;;;;;;;0.65;0.65;;;-9.60;99.90;;;;;;6198176;23;20234;-85
2024/01/08 05:41:53;;;;;;;2.35;2.25;;;-9.50;99.90;;;;;;6173622;23;20181;-80
2024/01/08 05:44:27;;;;;;;0.77;0.77;;;-9.70;99.90;;;;;;6200225;23;20341;-85
2024/01/08 05:46:56;;;;;;;2.90;2.47;;;-9.80;99.90;;;;;;6199955;23;20392;-82
2024/01/08 05:49:32;;;;;;;2.53;2.35;;;-9.60;99.90;;;;;;6200702;23;20196;-87
2024/01/08 05:52:01;;;;;;;1.50;1.45;;;-9.70;99.90;;;;;;6168654;23;20189;-88
2024/01/08 05:54:28;;;;;;;4.00;3.75;;;-9.80;99.90;;;;;;6195839;23;20227;-85
2024/01/08 05:56:56;;;;;;;0.70;0.70;;;-9.70;99.90;;;;;;6196874;23;20384;-86
2024/01/08 05:59:23;;;;;;;0.70;0.70;;;-9.60;99.90;;;;;;6198764;23;20189;-85
2024/01/08 06:01:50;;;;;;;2.80;2.67;;;-9.60;99.90;;;;;;6172469;23;20185;-84
2024/01/08 06:04:17;;;;;;;2.25;2.03;;;-9.70;99.90;;;;;;6195987;23;20248;-81
2024/01/08 06:06:44;;;;;;;2.35;2.25;;;-9.80;99.90;;;;;;6197566;23;20204;-88
2024/01/08 06:09:12;;;;;;;4.53;4.28;;;-9.70;99.90;;;;;;6171201;23;20391;-84
2024/01/08 06:11:39;;;;;;;1.45;1.45;;;-9.70;99.90;;;;;;6202898;23;20200;-82
2024/01/08 06:14:06;;;;;;;3.92;3.72;;;-9.70;99.90;;;;;;6185158;23;20173;-84
2024/01/08 06:16:35;;;;;;;1.75;1.65;;;-9.70;99.90;;;;;;6209781;23;20185;-80
2024/01/08 06:19:02;;;;;;;2.13;2.03;;;-9.70;99.90;;;;;;6199985;23;20239;-83
2024/01/08 06:21:30;;;;;;;2.15;2.05;;;-9.70;99.90;;;;;;6170854;23;20345;-84
2024/01/08 06:23:57;;;;;;;2.80;2.70;;;-9.70;99.90;;;;;;6200262;23;20176;-85
2024/01/08 06:26:26;;;;;;;4.13;3.92;;;-9.60;99.90;;;;;;6173034;23;20185;-80
2024/01/08 06:28:54;;;;;;;1.20;1.20;;;-9.70;99.90;;;;;;6174037;23;20204;-80
2024/01/08 06:31:22;;;;;;;3.75;2.78;;;-9.70;99.90;;;;;;6210870;23;20188;-82
2024/01/08 06:33:49;;;;;;;1.13;1.13;;;-9.40;99.90;;;;;;6207151;23;20192;-81
2024/01/08 06:36:16;;;;;;;2.95;2.75;;;-9.40;99.90;;;;;;6205804;23;20177;-85
2024/01/08 06:38:43;;;;;;;3.72;3.55;;;-9.80;99.90;;;;;;6202917;23;20172;-86
2024/01/08 06:41:10;;;;;;;3.40;3.20;;;-9.80;99.90;;;;;;6204847;23;20252;-79
2024/01/08 06:43:38;;;;;;;2.38;2.28;;;-9.90;99.90;;;;;;6182792;23;20189;-85
2024/01/08 06:46:07;;;;;;;0.80;0.80;;;-9.80;99.90;;;;;;6207777;23;20181;-83
2024/01/08 06:48:35;;;;;;;4.50;4.10;;;-9.80;99.90;;;;;;6199063;23;20200;-81
2024/01/08 06:51:02;;;;;;;3.45;3.25;;;-9.70;99.90;;;;;;6170209;23;20177;-84
2024/01/08 06:53:29;;;;;;;2.35;2.25;;;-9.60;99.90;;;;;;6200627;23;20214;-84
2024/01/08 06:55:57;;;;;;;4.63;4.30;;;-9.60;99.90;;;;;;6198678;23;20224;-90
2024/01/08 06:58:23;;;;;;;4.65;4.35;;;-9.70;99.90;;;;;;6199891;23;20204;-83
2024/01/08 07:00:51;;;;;;;0.60;0.60;;;-9.80;99.90;;;;;;6198754;23;20212;-87
2024/01/08 07:03:18;;;;;;;2.17;2.10;;;-9.90;99.90;;;;;;6202584;23;20330;-83
2024/01/08 07:05:47;;;;;;;0.90;0.90;;;-10.00;99.90;;;;;;6199034;23;20227;-86
2024/01/08 07:08:15;;;;;;;1.02;1.02;;;-9.90;99.90;;;;;;6195977;23;20227;-86
2024/01/08 07:10:42;;;;;;;1.20;1.20;;;-9.80;99.90;;;;;;6262891;23;20202;-84
2024/01/08 07:13:09;;;;;;;2.45;2.35;;;-9.80;99.90;;;;;;6256458;23;20191;-90
2024/01/08 07:15:43;;;;;;;1.10;1.10;;;-9.80;99.90;;;;;;6255268;23;20191;-85
2024/01/08 07:18:10;;;;;;;3.22;2.97;;;-9.80;99.90;;;;;;6230490;23;20186;-88
2024/01/08 07:20:40;;;;;;;0.93;0.93;;;-9.70;99.90;;;;;;6258773;23;20184;-85
2024/01/08 07:23:15;;;;;;;1.05;1.05;;;-9.90;99.90;;;;;;6231745;23;20164;-83
2024/01/08 07:25:43;;;;;;;1.13;1.13;;;-9.90;99.90;;;;;;6231715;23;20647;-84
2024/01/08 07:28:11;;;;;;;3.15;2.95;;;-10.00;99.90;;;;;;6256788;23;20191;-86
2024/01/08 07:30:39;;;;;;;2.10;1.95;;;-10.00;99.90;;;;;;6232665;22;20195;-84
2024/01/08 07:33:06;;;;;;;2.25;2.17;;;-9.90;99.90;;;;;;6270676;22;20164;-84
2024/01/08 07:35:34;;;;;;;2.70;2.58;;;-9.90;99.90;;;;;;6272280;22;20223;-87
2024/01/08 07:38:01;;;;;;;1.30;1.30;;;-9.80;99.90;;;;;;6236956;23;20239;-83
2024/01/08 07:40:29;;;;;;;2.17;2.08;;;-9.80;99.90;;;;;;6232566;23;20187;-83
2024/01/08 07:42:57;;;;;;;2.45;2.25;;;-9.80;99.90;;;;;;6255413;23;20743;-87
2024/01/08 07:45:26;;;;;;;0.68;0.68;;;-9.80;99.90;;;;;;6258985;23;20196;-84
2024/01/08 07:47:54;;;;;;;1.40;1.40;;;-9.90;99.90;;;;;;6256895;23;20202;-87
2024/01/08 07:50:25;;;;;;;1.60;1.60;;;-9.90;99.90;;;;;;6230409;23;20249;-87
2024/01/08 07:52:53;;;;;;;1.30;1.30;;;-9.80;99.90;;;;;;6230798;23;20171;-88
2024/01/08 07:55:20;;;;;;;2.58;2.47;;;-9.70;99.90;;;;;;6256635;23;20222;-87
2024/01/08 07:57:47;;;;;;;1.35;1.35;;;-9.70;99.90;;;;;;6255539;23;20393;-85
2024/01/08 08:00:15;;;;;;;2.83;2.63;;;-9.70;99.90;;;;;;6258792;22;20188;-86
2024/01/08 08:02:43;;;;;;;2.70;2.25;;;-9.80;99.90;;;;;;6253983;23;20214;-87
2024/01/08 08:05:11;;;;;;;5.13;4.93;;;-9.70;99.90;;;;;;6257119;23;20198;-87
2024/01/08 08:07:39;;;;;;;2.85;2.60;;;-9.80;99.90;;;;;;6227936;23;20250;-84
2024/01/08 08:10:06;;;;;;;3.10;2.78;;;-9.90;99.90;;;;;;6258819;23;20210;-83
2024/01/08 08:12:33;;;;;;;2.00;1.90;;;-9.70;99.90;;;;;;6257406;23;20184;-83
2024/01/08 08:15:01;;;;;;;2.47;2.38;;;-9.70;99.90;;;;;;6252782;23;20541;-86
2024/01/08 08:17:29;;;;;;;1.08;1.08;;;-9.60;99.90;;;;;;6228260;23;20184;-89
2024/01/08 08:19:56;;;;;;;3.10;2.90;;;-9.70;99.90;;;;;;6229562;23;20172;-85
2024/01/08 08:22:24;;;;;;;1.55;1.45;;;-9.70;99.90;;;;;;6264164;22;20219;-84
2024/01/08 08:24:50;;;;;;;5.60;5.20;;;-9.50;99.90;;;;;;6232251;23;20499;-87
2024/01/08 08:27:18;;;;;;;2.55;2.35;;;-9.40;99.90;;;;;;6255851;23;20175;-85
2024/01/08 08:29:48;;;;;;;1.05;1.05;;;-9.40;99.90;;;;;;6257958;23;20519;-88
2024/01/08 08:32:15;;;;;;;8.25;2.35;;;-9.40;99.90;;;;;;6254953;23;20191;-81
2024/01/08 08:34:42;;;;;;;2.42;2.35;;;-9.30;99.90;;;;;;6254785;23;20365;-83
2024/01/08 08:37:10;;;;;;;2.08;1.98;;;-9.40;99.90;;;;;;6258971;23;20176;-89
2024/01/08 08:39:38;;;;;;;4.25;3.95;;;-9.40;99.90;;;;;;6259965;23;20242;-88
2024/01/08 08:42:06;;;;;;;8.50;4.95;;;-9.40;99.90;;;;;;6232374;23;20175;-84
2024/01/08 08:44:34;;;;;;;0.80;0.80;;;-9.70;99.90;;;;;;6258154;23;20175;-89
2024/01/08 08:47:04;;;;;;;2.83;2.72;;;-9.50;99.90;;;;;;6260073;23;20391;-89
2024/01/08 08:49:31;;;;;;;1.80;1.70;;;-9.50;99.90;;;;;;6238225;22;20184;-89
2024/01/08 08:52:02;;;;;;;7.18;3.83;;;-9.40;99.90;;;;;;6199401;22;20208;-87
2024/01/08 08:54:29;;;;;;;2.67;2.47;;;-9.20;99.90;;;;;;6204135;23;20184;-90
2024/01/08 08:56:56;;;;;;;2.15;2.05;;;-9.00;99.90;;;;;;6163087;23;20437;-86
2024/01/08 09:04:53;;;;;;;2.67;2.50;;;-8.90;99.90;;;;;;6196585;22;20267;-85
2024/01/08 09:07:22;;;;;;;1.48;1.45;;;-8.90;99.90;;;;;;6206696;23;20193;-85
2024/01/08 09:09:49;;;;;;;1.67;1.67;;;-9.00;99.90;;;;;;6200644;23;20488;-85
2024/01/08 09:12:18;;;;;;;2.90;2.72;;;-9.00;99.90;;;;;;6200938;23;20211;-85
2024/01/08 09:14:47;;;;;;;3.70;3.50;;;-8.90;99.90;;;;;;6196580;23;20205;-88
2024/01/08 09:17:14;;;;;;;1.50;1.50;;;-9.00;99.90;;;;;;6175559;23;20181;-89
2024/01/08 09:22:25;;;;;;;4.55;4.22;;;-9.20;99.90;;;;;;6202661;22;20200;-83
2024/01/08 09:24:52;;;;;;;1.52;1.42;;;-9.50;99.90;;;;;;6204403;23;20196;-84
2024/01/08 09:27:19;;;;;;;6.43;3.72;;;-9.30;99.90;;;;;;6205710;23;20221;-87
2024/01/08 09:29:49;;;;;;;1.83;1.73;;;-9.20;99.90;;;;;;6199914;23;20212;-91
2024/01/08 09:32:16;;;;;;;1.23;1.23;;;-9.10;99.90;;;;;;6194099;23;20192;-85
2024/01/08 09:34:43;;;;;;;1.60;1.50;;;-9.20;99.90;;;;;;6197283;23;20196;-84
2024/01/08 09:37:11;;;;;;;2.67;2.58;;;-9.10;99.90;;;;;;6198231;23;20185;-89
2024/01/08 09:39:39;;;;;;;1.92;1.83;;;-9.00;99.90;;;;;;6203922;23;20194;-91
2024/01/08 09:42:32;;;;;;;2.72;2.63;;;-9.20;99.90;;;;;;6198673;22;20198;-90
2024/01/08 09:45:07;;;;;;;3.95;3.63;;;-9.00;99.90;;;;;;6198386;23;20192;-88
2024/01/08 09:47:35;;;;;;;1.88;1.88;;;-9.00;99.90;;;;;;6197997;23;20224;-87
2024/01/08 09:50:04;;;;;;;1.38;1.30;;;-9.20;99.90;;;;;;6197147;23;20205;-89
2024/01/08 09:52:33;;;;;;;2.28;2.17;;;-9.30;99.90;;;;;;6200012;23;20185;-85
2024/01/08 09:57:49;;;;;;;6.45;3.95;;;-9.10;99.90;;;;;;6209579;22;20193;-88
2024/01/08 10:00:19;;;;;;;2.08;2.00;;;-9.30;99.90;;;;;;6211977;23;20195;-86
2024/01/08 10:02:55;;;;;;;5.25;4.93;;;-9.30;99.90;;;;;;6211295;23;20268;-90
2024/01/08 10:05:27;;;;;;;2.65;2.55;;;-8.90;99.90;;;;;;6207183;23;20165;-88
2024/01/08 10:07:57;;;;;;;1.70;1.65;;;-8.80;99.90;;;;;;6197591;23;20228;-92
2024/01/08 10:10:26;;;;;;;1.20;1.20;;;-8.60;99.90;;;;;;6202230;23;20204;-89
2024/01/08 10:12:53;;;;;;;2.55;2.45;;;-8.50;99.90;;;;;;6209449;23;20161;-92
2024/01/08 10:15:22;;;;;;;2.20;2.10;;;-8.30;99.90;;;;;;6199384;22;20212;-84
2024/01/08 10:17:51;;;;;;;1.80;1.70;;;-8.10;99.90;;;;;;6209916;23;20185;-87
2024/01/08 10:20:19;;;;;;;4.13;3.80;;;-8.30;99.90;;;;;;6201328;23;20169;-87
2024/01/08 10:23:08;;;;;;;4.40;4.10;;;-8.30;99.90;;;;;;6209041;23;20212;-90
2024/01/08 10:28:19;;;;;;;5.32;3.55;;;-8.50;99.90;;;;;;6204381;22;20231;-83
2024/01/08 10:30:47;;;;;;;3.20;3.10;;;-8.40;99.90;;;;;;6201269;23;20231;-82
2024/01/08 10:33:17;;;;;;;6.13;4.93;;;-8.30;99.90;;;;;;6207536;23;20178;-82
2024/01/08 10:35:45;;;;;;;4.07;3.72;;;-8.40;99.90;;;;;;6205227;23;20166;-84
2024/01/08 10:38:13;;;;;;;5.05;4.80;;;-8.30;99.90;;;;;;6200778;23;20187;-84
2024/01/08 10:40:40;;;;;;;5.20;4.72;;;-8.60;99.90;;;;;;6203096;23;20203;-86
2024/01/08 10:43:10;;;;;;;3.22;2.92;;;-8.60;99.90;;;;;;6205874;23;20173;-89
2024/01/08 10:45:37;;;;;;;3.33;3.13;;;-8.40;99.90;;;;;;6196574;23;20211;-90
2024/01/08 10:48:07;;;;;;;4.30;4.00;;;-8.40;99.90;;;;;;6179160;23;20189;-84
2024/01/08 10:50:38;;;;;;;21.88;5.40;;;-8.30;99.90;;;;;;6201764;23;20189;-86
2024/01/08 10:53:14;;;;;;;3.00;2.83;;;-8.30;99.90;;;;;;6175289;22;20595;-90
2024/01/08 10:55:43;;;;;;;1.73;1.63;;;-8.30;99.90;;;;;;6182045;23;20188;-88
2024/01/08 10:58:22;;;;;;;2.15;2.05;;;-8.20;99.90;;;;;;6209619;23;20165;-91
2024/01/08 11:00:52;;;;;;;3.17;3.00;;;-8.10;99.90;;;;;;6201591;22;20204;-88
2024/01/08 11:03:20;;;;;;;9.45;4.63;;;-8.10;99.90;;;;;;6215947;22;20204;-89
2024/01/08 11:08:24;;;;;;;4.20;3.53;;;-8.10;99.90;;;;;;6195093;22;20185;-92
2024/01/08 11:10:52;;;;;;;2.65;2.55;;;-8.00;99.90;;;;;;6213733;23;20191;-91
2024/01/08 11:13:21;;;;;;;7.78;3.53;;;-8.00;99.90;;;;;;6189061;23;20225;-89
2024/01/08 11:15:50;;;;;;;3.03;2.92;;;-8.20;99.90;;;;;;6180813;22;20230;-85
2024/01/08 11:18:25;;;;;;;1.83;1.73;;;-8.20;99.90;;;;;;6204133;23;20608;-91
2024/01/08 11:20:59;;;;;;;3.28;3.08;;;-8.10;99.90;;;;;;6202938;23;20215;-91
2024/01/08 11:26:25;;;;;;;4.72;4.45;;;-8.00;99.90;;;;;;6171443;23;20229;-90
2024/01/08 11:29:10;;;;;;;2.65;2.55;;;-8.10;99.90;;;;;;6191506;22;20539;-88
2024/01/08 11:39:56;;;;;;;1.87;1.77;;;-8.00;99.90;;;;;;6182575;22;20197;-84
2024/01/08 11:42:28;;;;;;;3.30;3.17;;;-7.80;99.90;;;;;;6206474;23;20226;-88
2024/01/08 11:45:01;;;;;;;2.63;2.47;;;-8.00;99.90;;;;;;6202171;23;20235;-88
2024/01/08 11:47:38;;;;;;;4.53;3.28;;;-8.00;99.90;;;;;;6197842;23;20177;-89
2024/01/08 11:50:08;;;;;;;2.05;1.95;;;-7.70;99.90;;;;;;6195940;23;20247;-87
2024/01/08 11:52:37;;;;;;;1.90;1.80;;;-7.50;99.90;;;;;;6197913;23;20180;-89
2024/01/08 11:55:06;;;;;;;9.23;4.55;;;-7.60;99.90;;;;;;6198837;23;20256;-85
2024/01/08 11:57:35;;;;;;;1.67;1.60;;;-7.90;99.90;;;;;;6198486;23;20636;-89
2024/01/08 12:00:13;;;;;;;3.03;2.83;;;-7.80;99.90;;;;;;6198062;23;20181;-90
2024/01/08 12:02:40;;;;;;;2.47;2.38;;;-7.70;99.90;;;;;;6196281;22;20998;-88
2024/01/08 12:05:09;;;;;;;2.45;1.73;;;-7.80;99.90;;;;;;6203621;23;20196;-90
2024/01/08 12:07:41;;;;;;;12.95;5.35;;;-7.70;99.90;;;;;;6203664;23;20226;-89
2024/01/08 12:10:12;;;;;;;7.82;4.18;;;-7.80;99.90;;;;;;6208346;23;20229;-86
2024/01/08 12:12:41;;;;;;;4.68;4.38;;;-7.60;99.90;;;;;;6208172;23;20173;-91
2024/01/08 12:15:09;;;;;;;2.58;2.47;;;-7.60;99.90;;;;;;6204424;23;20236;-90
2024/01/08 12:17:37;;;;;;;2.13;2.03;;;-7.50;99.90;;;;;;6203092;23;20201;-89
2024/01/08 12:20:05;;;;;;;2.65;2.50;;;-7.50;99.90;;;;;;6197693;23;20200;-89
2024/01/08 12:22:33;;;;;;;5.85;3.10;;;-7.60;99.90;;;;;;6211535;23;20184;-89
2024/01/08 12:25:00;;;;;;;7.15;5.55;;;-7.50;99.90;;;;;;6211409;23;20169;-88
2024/01/08 12:27:31;;;;;;;3.65;3.47;;;-7.40;99.90;;;;;;6181261;23;20245;-89
2024/01/08 12:29:58;;;;;;;3.88;3.60;;;-7.60;99.90;;;;;;6200653;23;20233;-88
2024/01/08 12:32:27;;;;;;;3.53;3.15;;;-7.60;99.90;;;;;;6201979;23;20195;-89
2024/01/08 12:35:00;;;;;;;5.03;4.65;;;-7.50;99.90;;;;;;6182637;23;20208;-90
2024/01/08 12:37:32;;;;;;;5.38;4.78;;;-7.50;99.90;;;;;;6176308;23;20224;-90
2024/01/08 12:40:04;;;;;;;3.85;3.55;;;-7.50;99.90;;;;;;6166122;22;20988;-88
2024/01/08 12:42:35;;;;;;;3.58;3.30;;;-7.40;99.90;;;;;;6200977;22;20239;-90
2024/01/08 12:45:05;;;;;;;8.27;6.65;;;-7.50;99.90;;;;;;6184710;23;20207;-88
2024/01/08 12:47:32;;;;;;;3.25;2.65;;;-7.50;99.90;;;;;;6191711;22;20193;-90
2024/01/08 12:50:00;;;;;;;4.80;4.50;;;-7.40;99.90;;;;;;6197254;22;20199;-85
2024/01/08 13:00:33;;;;;;;6.25;5.32;;;-7.40;99.90;;;;;;6183028;22;20207;-86
2024/01/08 13:03:02;;;;;;;3.90;3.70;;;-7.40;99.90;;;;;;6204180;23;20196;-90
2024/01/08 13:08:05;;;;;;;4.75;3.90;;;-7.30;99.90;;;;;;6187620;22;20272;-89
2024/01/08 13:10:32;;;;;;;2.25;2.15;;;-7.30;99.90;;;;;;6183916;23;20621;-90
2024/01/08 13:15:36;;;;;;;4.57;4.30;;;-7.40;99.90;;;;;;6188889;22;20200;-87
2024/01/08 13:18:03;;;;;;;8.45;7.65;;;-7.30;99.90;;;;;;6205026;23;20170;-82
2024/01/08 13:20:32;;;;;;;4.50;4.20;;;-7.30;99.90;;;;;;6186095;22;20212;-90
2024/01/08 13:22:59;;;;;;;4.43;4.15;;;-7.30;99.90;;;;;;6175988;23;20509;-90
2024/01/08 13:28:04;;;;;;;3.47;2.53;;;-7.30;99.90;;;;;;6186590;22;20212;-89
2024/01/08 13:35:49;;;;;;;2.90;2.72;;;-7.30;99.90;;;;;;6230675;22;20199;-90
2024/01/08 13:38:30;;;;;;;5.43;4.95;;;-7.20;99.90;;;;;;6208578;22;20207;-90
2024/01/08 13:43:49;;;;;;;6.15;4.82;;;-7.40;99.90;;;;;;6198156;22;20220;-90
2024/01/08 13:46:17;;;;;;;2.92;2.72;;;-7.40;99.90;;;;;;6205994;23;20196;-88
2024/01/08 13:59:13;;;;;;;4.57;4.22;;;-7.40;99.90;;;;;;6183573;22;20243;-90
2024/01/08 14:04:32;;;;;;;4.07;3.88;;;-7.30;99.90;;;;;;6202435;22;20193;-89
2024/01/08 14:09:34;;;;;;;6.45;3.30;;;-7.40;99.90;;;;;;6174290;22;20208;-91
2024/01/08 14:14:38;;;;;;;7.35;5.20;;;-7.40;99.90;;;;;;6179454;22;20215;-84